Lewiston Nez Perce County Airport
KLWS : now visible

Airfield :











YOU CAN JOIN US ON...

 
LOGIN :

Register | Disclaimer

   EN    FR    IT 

 









Legend :    VFR   Marginal VFR   IFR   Intensive IFR   Very Intensive IFR
Visi :
Ceiling :
>= 8 km
>= 3000ft
5 to 8 km
1000 to 3000 ft
1500m to 5 km
500 to 1000 ft
800 to 1500m
200 to 500 ft
< 800m
< 200 ft
Symbols :   Thunderstorms  Fog  Heavy snow  Heavy precipitations  Wind > 20 kt






- Airport Elevation : 1442 ft
- IATA code : LWS


KLWS - Lewiston Nez Perce County

CURRENT METAR :
  • 080856Z AUTO 00000KT 10SM OVC049 06/04 A2978 RMK AO2 RAB13E24 SLP086 P0000 60002 T00610044 51007

EXPIRED METARs :
  • 080815Z AUTO 28003KT 3SM -RA BR FEW001 SCT009 OVC050 06/05 A2977 RMK AO2 RAB13 P0000 T00610050
  • 080756Z AUTO 24004KT 2 1/2SM BR FEW001 SCT007 OVC055 06/04 A2977 RMK AO2 VIS 1 1/2V5 SLP085 T00610044 401110028
  • 080656Z AUTO 00000KT 10SM BKN070 OVC120 07/05 A2975 RMK AO2 RAE35 SLP080 P0002 T00670050

TAF KLWS
Valid from the 08 at 08:00 until the 09 at 06:00 UTC


080802Z 0808/0906 13005KT 3SM -SHRA BR BCFG FEW001 OVC040
FM081400 27003KT 6SM BR OVC015
FM081900 29004KT P6SM BKN025
FM090000 29005KT P6SM BKN050



MET'MAP, your aeronautical weather chart ! - Copyright ORBIFLY December 2007 - Disclaimer

ORBIFLY MET'MAP TEAM :

Programming & Development : Alexandra Zaïnal
Concept & original design : Baudouin d'Aumeries
Assistance for programming : Marc-Olivier Méhu
Technical & hardware support : Manuel Goepfert

Contact : metmap@orbifly.com




SOURCES & CREDITS :

   NOAA       Earth
Advisory